Time;durP1;ratioP1;P1;durP2;ratioP2;P2;SDS_P1;SDS_P2;PMS_P1;PMS_P2;Temp;Humidity;BMP_temperature;BMP_pressure;BME280_temperature;BME280_humidity;BME280_pressure;Samples;Min_cycle;Max_cycle;Signal;HPM_P1;HPM_P2
2024/03/16 00:00:35;;;;;;;1.00;0.80;;;10.60;99.90;;;;;;5045565;28;20206;-71
2024/03/16 00:03:01;;;;;;;1.10;0.80;;;10.60;99.90;;;;;;5053622;28;20179;-70
2024/03/16 00:05:27;;;;;;;0.80;0.60;;;10.60;99.90;;;;;;5052302;28;20695;-70
2024/03/16 00:07:53;;;;;;;0.90;0.80;;;10.60;99.90;;;;;;5053728;28;20273;-71
2024/03/16 00:10:19;;;;;;;2.33;0.80;;;10.50;99.90;;;;;;5053817;28;20484;-70
2024/03/16 00:12:44;;;;;;;0.83;0.60;;;10.50;99.90;;;;;;5053557;28;20406;-70
2024/03/16 00:15:10;;;;;;;1.87;0.80;;;10.40;99.90;;;;;;5047256;28;20203;-70
2024/03/16 00:17:36;;;;;;;0.80;0.60;;;10.40;99.90;;;;;;5052122;28;20179;-70
2024/03/16 00:20:05;;;;;;;1.30;0.60;;;10.30;99.90;;;;;;5053615;28;20221;-70
2024/03/16 00:22:31;;;;;;;0.83;0.60;;;10.30;99.90;;;;;;5052337;28;20555;-71
2024/03/16 00:24:56;;;;;;;2.20;0.70;;;10.20;99.90;;;;;;5052281;28;20496;-70
2024/03/16 00:27:23;;;;;;;0.80;0.60;;;10.20;99.90;;;;;;5052184;28;20262;-71
2024/03/16 00:29:48;;;;;;;1.03;0.60;;;10.10;99.90;;;;;;5052331;28;20167;-71
2024/03/16 00:32:15;;;;;;;0.90;0.60;;;10.10;99.90;;;;;;5053753;28;20451;-70
2024/03/16 00:34:40;;;;;;;1.00;0.70;;;10.10;99.90;;;;;;5053182;28;20541;-70
2024/03/16 00:37:06;;;;;;;2.37;1.00;;;10.10;99.90;;;;;;5053202;28;20408;-72
2024/03/16 00:39:32;;;;;;;1.30;0.60;;;10.10;99.90;;;;;;5053213;28;20179;-71
2024/03/16 00:41:58;;;;;;;1.10;0.70;;;10.10;99.90;;;;;;5052874;28;20178;-70
2024/03/16 00:44:25;;;;;;;1.20;0.60;;;10.20;99.90;;;;;;5053179;28;20170;-71
2024/03/16 00:46:51;;;;;;;0.80;0.60;;;10.30;99.90;;;;;;5051910;28;20788;-70
2024/03/16 00:49:16;;;;;;;1.20;0.70;;;10.30;99.90;;;;;;5053428;28;20421;-71
2024/03/16 00:51:42;;;;;;;1.37;0.60;;;10.30;99.90;;;;;;5051760;28;20198;-71
2024/03/16 00:54:11;;;;;;;1.13;0.80;;;10.30;99.90;;;;;;5052949;28;20260;-70
2024/03/16 00:56:37;;;;;;;1.50;0.50;;;10.30;99.90;;;;;;5052839;28;20819;-70
2024/03/16 00:59:02;;;;;;;1.43;0.70;;;10.30;99.90;;;;;;5051233;28;20452;-70
2024/03/16 01:01:29;;;;;;;0.80;0.60;;;10.50;99.90;;;;;;5046684;28;20443;-70
2024/03/16 01:03:55;;;;;;;0.80;0.80;;;10.50;99.90;;;;;;5052498;28;20167;-71
2024/03/16 01:06:20;;;;;;;1.50;0.70;;;10.50;99.90;;;;;;5052549;28;20415;-70
2024/03/16 01:08:46;;;;;;;0.80;0.60;;;10.60;99.90;;;;;;5052649;28;20688;-70
2024/03/16 01:11:11;;;;;;;0.80;0.60;;;10.50;99.90;;;;;;5052346;28;20217;-70
2024/03/16 01:13:38;;;;;;;0.70;0.50;;;10.50;99.90;;;;;;5050766;28;20221;-70
2024/03/16 01:16:04;;;;;;;0.87;0.53;;;10.50;99.90;;;;;;5052385;28;20189;-70
2024/03/16 01:18:30;;;;;;;2.70;0.70;;;10.50;99.90;;;;;;5052574;28;20417;-70
2024/03/16 01:20:55;;;;;;;1.00;0.80;;;10.50;99.90;;;;;;5053186;28;20188;-71
2024/03/16 01:23:21;;;;;;;1.27;0.70;;;10.50;99.90;;;;;;5052141;28;20166;-71
2024/03/16 01:25:47;;;;;;;0.80;0.73;;;10.60;99.90;;;;;;5052033;28;20200;-70
2024/03/16 01:28:12;;;;;;;2.23;0.70;;;10.60;99.90;;;;;;5052410;28;20191;-70
2024/03/16 01:30:38;;;;;;;3.03;0.83;;;10.60;99.90;;;;;;5052409;28;20260;-70
2024/03/16 01:33:03;;;;;;;2.30;0.87;;;10.60;99.90;;;;;;5052388;28;20218;-70
2024/03/16 01:35:29;;;;;;;5.30;0.87;;;10.60;99.90;;;;;;5052596;28;20167;-71
2024/03/16 01:37:54;;;;;;;2.00;0.77;;;10.70;99.90;;;;;;5052199;28;20191;-70
2024/03/16 01:40:24;;;;;;;0.80;0.60;;;10.70;99.90;;;;;;5052587;28;20169;-71
2024/03/16 01:42:52;;;;;;;3.97;0.90;;;10.80;99.90;;;;;;5052399;28;20167;-70
2024/03/16 01:45:18;;;;;;;1.57;0.77;;;10.80;99.90;;;;;;5051881;28;20440;-70
2024/03/16 01:47:44;;;;;;;2.20;0.77;;;10.80;99.90;;;;;;5052064;28;20432;-70
2024/03/16 01:50:10;;;;;;;2.10;0.67;;;10.70;99.90;;;;;;5052588;28;20398;-70
2024/03/16 01:52:36;;;;;;;5.20;1.00;;;10.60;99.90;;;;;;5050654;28;20191;-71
2024/03/16 01:55:04;;;;;;;0.90;0.80;;;10.50;99.90;;;;;;5050365;28;20203;-70
2024/03/16 01:57:29;;;;;;;3.23;1.27;;;10.40;99.90;;;;;;5050763;28;20417;-71
2024/03/16 01:59:55;;;;;;;1.20;0.87;;;10.40;99.90;;;;;;5047107;28;20432;-71
2024/03/16 02:02:32;;;;;;;2.97;1.00;;;10.40;99.90;;;;;;5049155;28;20665;-70
2024/03/16 02:05:00;;;;;;;3.97;1.00;;;10.40;99.90;;;;;;5043250;28;20174;-70
2024/03/16 02:07:25;;;;;;;1.57;0.80;;;10.40;99.90;;;;;;5051752;28;20401;-70
2024/03/16 02:09:51;;;;;;;1.93;1.00;;;10.40;99.90;;;;;;5051570;28;20406;-70
2024/03/16 02:12:17;;;;;;;1.07;0.97;;;10.40;99.90;;;;;;5051840;28;20189;-71
2024/03/16 02:14:43;;;;;;;4.00;1.80;;;10.40;99.90;;;;;;5051109;28;20495;-71
2024/03/16 02:17:10;;;;;;;1.37;0.93;;;10.40;99.90;;;;;;5051943;28;20163;-70
2024/03/16 02:19:39;;;;;;;0.80;0.70;;;10.50;99.90;;;;;;5052890;28;20265;-70
2024/03/16 02:22:05;;;;;;;2.10;0.90;;;10.50;99.90;;;;;;5052775;28;20757;-70
2024/03/16 02:24:35;;;;;;;1.63;0.97;;;10.50;99.90;;;;;;5052520;28;20840;-70
2024/03/16 02:27:00;;;;;;;1.53;0.93;;;10.50;99.90;;;;;;5053105;28;20413;-70
2024/03/16 02:29:32;;;;;;;10.87;2.00;;;10.50;99.90;;;;;;5051309;28;20432;-72
2024/03/16 02:31:58;;;;;;;3.17;0.97;;;10.50;99.90;;;;;;5052876;28;20609;-70
2024/03/16 02:34:24;;;;;;;2.90;1.10;;;10.50;99.90;;;;;;5052840;28;20534;-71
2024/03/16 02:36:49;;;;;;;1.40;0.80;;;10.60;99.90;;;;;;5056426;28;20410;-70
2024/03/16 02:39:16;;;;;;;1.73;1.20;;;10.60;99.90;;;;;;5056872;28;20182;-70
2024/03/16 02:41:42;;;;;;;1.03;0.93;;;10.60;99.90;;;;;;5056697;28;20508;-69
2024/03/16 02:44:09;;;;;;;6.93;1.40;;;10.50;99.90;;;;;;5056376;28;20459;-70
2024/03/16 02:46:34;;;;;;;6.20;1.27;;;10.50;99.90;;;;;;5056693;28;20187;-71
2024/03/16 02:49:00;;;;;;;3.93;1.40;;;10.50;99.90;;;;;;5056627;28;20428;-70
2024/03/16 02:51:25;;;;;;;2.37;1.30;;;10.50;99.90;;;;;;5056460;28;20214;-69
2024/03/16 02:53:52;;;;;;;1.30;1.20;;;10.60;99.90;;;;;;5054184;28;20203;-70
2024/03/16 02:56:19;;;;;;;1.67;1.33;;;10.60;99.90;;;;;;5055278;28;20515;-70
2024/03/16 02:58:44;;;;;;;2.00;1.80;;;10.70;99.90;;;;;;5055058;28;20470;-70
2024/03/16 03:01:10;;;;;;;7.40;2.30;;;10.70;99.90;;;;;;5052061;28;20413;-70
2024/03/16 03:03:35;;;;;;;3.67;2.00;;;10.70;99.90;;;;;;5053452;28;20532;-70
2024/03/16 03:06:01;;;;;;;2.50;2.30;;;10.80;99.90;;;;;;5054784;28;20177;-70
2024/03/16 03:08:28;;;;;;;3.57;2.60;;;10.70;99.90;;;;;;5053488;28;20195;-70
2024/03/16 03:10:55;;;;;;;4.37;2.87;;;10.70;99.90;;;;;;5054894;28;20409;-70
2024/03/16 03:13:21;;;;;;;4.47;4.10;;;10.70;99.90;;;;;;5054798;28;20220;-70
2024/03/16 03:15:48;;;;;;;3.90;3.00;;;10.80;99.90;;;;;;5053708;28;20936;-70
2024/03/16 03:18:14;;;;;;;2.60;2.33;;;10.80;99.90;;;;;;5054677;28;20198;-70
2024/03/16 03:20:39;;;;;;;2.63;2.33;;;10.70;99.90;;;;;;5054270;28;20892;-71
2024/03/16 03:23:07;;;;;;;3.70;2.67;;;10.80;99.90;;;;;;5054730;28;20178;-70
2024/03/16 03:25:32;;;;;;;5.20;3.17;;;10.80;99.90;;;;;;5054721;28;20167;-70
2024/03/16 03:27:58;;;;;;;4.60;2.43;;;10.70;99.90;;;;;;5053534;28;20441;-70
2024/03/16 03:30:23;;;;;;;4.67;2.53;;;10.70;99.90;;;;;;5053671;28;20206;-71
2024/03/16 03:32:49;;;;;;;2.47;2.27;;;10.60;99.90;;;;;;5054713;28;20650;-70
2024/03/16 03:35:15;;;;;;;2.73;2.43;;;10.60;99.90;;;;;;5054535;28;20167;-70
2024/03/16 03:37:40;;;;;;;2.57;2.10;;;10.60;99.90;;;;;;5054493;28;20432;-70
2024/03/16 03:40:06;;;;;;;3.43;2.43;;;10.60;99.90;;;;;;5054738;28;20182;-70
2024/03/16 03:42:34;;;;;;;3.80;2.10;;;10.60;99.90;;;;;;5054713;28;20530;-70
2024/03/16 03:45:10;;;;;;;7.67;2.87;;;10.60;99.90;;;;;;5054503;28;20958;-70
2024/03/16 03:48:00;;;;;;;2.60;1.80;;;10.60;99.90;;;;;;5053906;28;20409;-70
2024/03/16 03:50:28;;;;;;;6.10;2.70;;;10.80;99.90;;;;;;5054397;28;20408;-70
2024/03/16 03:52:55;;;;;;;5.90;4.63;;;10.80;99.90;;;;;;5053069;28;20486;-71
2024/03/16 03:55:21;;;;;;;8.10;2.40;;;10.80;99.90;;;;;;5053133;28;21011;-70
2024/03/16 03:57:46;;;;;;;6.10;2.87;;;10.80;99.90;;;;;;5054257;28;20417;-70
2024/03/16 04:00:13;;;;;;;3.23;2.50;;;10.90;99.90;;;;;;5048954;28;20429;-70
2024/03/16 04:02:39;;;;;;;6.50;3.23;;;10.90;99.90;;;;;;5051804;28;20265;-69
2024/03/16 04:05:05;;;;;;;5.60;3.10;;;10.90;99.90;;;;;;5053931;28;20500;-70
2024/03/16 04:07:30;;;;;;;3.40;2.30;;;11.00;99.90;;;;;;5054476;28;20166;-70
2024/03/16 04:09:56;;;;;;;5.30;3.37;;;11.00;99.90;;;;;;5054276;28;20429;-70
2024/03/16 04:12:21;;;;;;;6.50;2.57;;;11.00;99.90;;;;;;5053122;28;20578;-70
2024/03/16 04:14:47;;;;;;;2.60;2.40;;;11.10;99.90;;;;;;5052696;28;20199;-70
2024/03/16 04:17:12;;;;;;;2.90;2.43;;;11.10;99.90;;;;;;5053980;28;20511;-71
2024/03/16 04:19:38;;;;;;;8.40;2.20;;;11.10;99.90;;;;;;5053551;28;20187;-71
2024/03/16 04:22:05;;;;;;;3.97;2.10;;;11.10;99.90;;;;;;5054034;28;20198;-70
2024/03/16 04:24:30;;;;;;;3.33;2.43;;;11.20;99.90;;;;;;5053710;28;20194;-70
2024/03/16 04:26:56;;;;;;;3.80;2.17;;;11.20;99.90;;;;;;5054056;28;20800;-70
2024/03/16 04:29:21;;;;;;;4.73;2.13;;;11.30;99.90;;;;;;5053676;28;20194;-70
2024/03/16 04:31:47;;;;;;;3.43;2.10;;;11.40;99.90;;;;;;5053464;28;20197;-73
2024/03/16 04:34:12;;;;;;;2.30;2.10;;;11.30;99.90;;;;;;5053552;28;20187;-70
2024/03/16 04:36:38;;;;;;;6.53;3.37;;;11.30;99.90;;;;;;5053598;28;20171;-70
2024/03/16 04:39:03;;;;;;;5.53;2.07;;;11.40;99.90;;;;;;5053444;28;20654;-70
2024/03/16 04:41:29;;;;;;;4.57;2.17;;;11.40;99.90;;;;;;5053579;28;20189;-70
2024/03/16 04:43:54;;;;;;;4.70;2.70;;;11.40;99.90;;;;;;5053333;28;20217;-70
2024/03/16 04:46:20;;;;;;;7.13;2.70;;;11.30;99.90;;;;;;5053093;28;20179;-70
2024/03/16 04:48:45;;;;;;;3.23;2.33;;;11.30;99.90;;;;;;5053247;28;20600;-70
2024/03/16 04:51:14;;;;;;;3.37;2.33;;;11.30;99.90;;;;;;5053260;28;20670;-70
2024/03/16 04:53:39;;;;;;;2.03;1.90;;;11.30;99.90;;;;;;5053196;28;20190;-71
2024/03/16 04:56:05;;;;;;;5.13;2.20;;;11.40;99.90;;;;;;5052941;28;20934;-71
2024/03/16 04:58:30;;;;;;;5.30;2.37;;;11.30;99.90;;;;;;5050979;28;20201;-70
2024/03/16 05:00:58;;;;;;;3.40;2.83;;;11.30;99.90;;;;;;5047275;28;20225;-70
2024/03/16 05:03:23;;;;;;;2.63;2.43;;;11.30;99.90;;;;;;5052593;28;20174;-70
2024/03/16 05:05:52;;;;;;;3.90;3.13;;;11.30;99.90;;;;;;5051448;28;20414;-70
2024/03/16 05:08:17;;;;;;;5.80;3.33;;;11.30;99.90;;;;;;5052682;28;20191;-70
2024/03/16 05:10:49;;;;;;;2.60;2.40;;;11.10;99.90;;;;;;5052763;28;20397;-70
2024/03/16 05:13:15;;;;;;;9.30;2.93;;;11.00;99.90;;;;;;5052738;28;20193;-70
2024/03/16 05:15:40;;;;;;;5.20;2.80;;;11.00;99.90;;;;;;5051311;28;20912;-70
2024/03/16 05:18:06;;;;;;;3.40;2.83;;;11.00;99.90;;;;;;5052399;28;20187;-70
2024/03/16 05:20:31;;;;;;;5.00;3.00;;;11.00;99.90;;;;;;5052495;28;20164;-70
2024/03/16 05:22:57;;;;;;;3.57;3.00;;;10.90;99.90;;;;;;5052481;28;20182;-71
2024/03/16 05:25:22;;;;;;;4.03;2.90;;;10.90;99.90;;;;;;5047894;28;20261;-70
2024/03/16 05:27:48;;;;;;;4.40;3.00;;;10.90;99.90;;;;;;5050900;28;20198;-70
2024/03/16 05:30:15;;;;;;;4.53;3.20;;;10.80;99.90;;;;;;5051045;28;20308;-70
2024/03/16 05:32:41;;;;;;;3.10;2.70;;;10.80;99.90;;;;;;5052258;28;20167;-70
2024/03/16 05:35:08;;;;;;;5.90;2.83;;;10.80;99.90;;;;;;5052243;28;20961;-70
2024/03/16 05:37:34;;;;;;;4.10;2.97;;;10.90;99.90;;;;;;5052508;28;20163;-70
2024/03/16 05:40:00;;;;;;;4.17;3.17;;;10.90;99.90;;;;;;5052385;28;20821;-70
2024/03/16 05:42:25;;;;;;;4.53;3.97;;;10.90;99.90;;;;;;5052391;28;20508;-70
2024/03/16 05:44:51;;;;;;;6.60;3.90;;;10.90;99.90;;;;;;5052239;28;20543;-71
2024/03/16 05:47:21;;;;;;;9.77;4.87;;;11.00;99.90;;;;;;5052198;28;20178;-70
2024/03/16 05:49:47;;;;;;;7.53;4.90;;;11.00;99.90;;;;;;5052503;28;20711;-70
2024/03/16 05:52:12;;;;;;;9.07;5.23;;;11.00;99.90;;;;;;5052410;28;20429;-70
2024/03/16 05:54:38;;;;;;;8.43;3.60;;;11.00;99.90;;;;;;5052165;28;20526;-70
2024/03/16 05:57:03;;;;;;;5.70;4.40;;;11.00;99.90;;;;;;5052191;28;20167;-71
2024/03/16 05:59:29;;;;;;;7.10;4.77;;;11.00;99.90;;;;;;5049250;28;20645;-70
2024/03/16 06:01:55;;;;;;;5.60;3.77;;;11.00;99.90;;;;;;5050583;28;20183;-70
2024/03/16 06:04:21;;;;;;;7.77;5.43;;;11.00;99.90;;;;;;5044966;28;20555;-70
2024/03/16 06:06:47;;;;;;;5.10;4.43;;;11.10;99.90;;;;;;5047848;28;20547;-70
2024/03/16 06:09:12;;;;;;;8.20;4.70;;;11.10;99.90;;;;;;5051559;28;20439;-71
2024/03/16 06:11:38;;;;;;;6.10;4.33;;;11.10;99.90;;;;;;5054429;28;20702;-70
2024/03/16 06:14:09;;;;;;;5.57;5.07;;;11.20;99.90;;;;;;5056150;28;20233;-70
2024/03/16 06:16:37;;;;;;;11.60;4.90;;;11.20;99.90;;;;;;5054819;28;20874;-70
2024/03/16 06:19:04;;;;;;;9.20;5.33;;;11.30;99.90;;;;;;5055903;28;20417;-70
2024/03/16 06:21:31;;;;;;;6.53;4.23;;;11.40;99.90;;;;;;5054847;28;20471;-70
2024/03/16 06:23:56;;;;;;;8.77;4.80;;;11.50;99.90;;;;;;5055816;28;20405;-70
2024/03/16 06:26:22;;;;;;;4.97;4.47;;;11.50;99.90;;;;;;5055440;28;20471;-70
2024/03/16 06:28:54;;;;;;;6.57;4.07;;;11.50;99.90;;;;;;5055915;28;20190;-70
2024/03/16 06:31:31;;;;;;;6.10;3.87;;;11.50;99.90;;;;;;5055741;28;20167;-70
2024/03/16 06:33:57;;;;;;;5.87;4.23;;;11.50;99.90;;;;;;5055467;28;20476;-70
2024/03/16 06:36:23;;;;;;;9.63;5.30;;;11.40;99.90;;;;;;5055099;28;20427;-70
2024/03/16 06:38:48;;;;;;;7.17;4.40;;;11.40;99.90;;;;;;5055368;28;21001;-70
2024/03/16 06:41:14;;;;;;;8.60;5.00;;;11.40;99.90;;;;;;5053939;28;20216;-70
2024/03/16 06:43:40;;;;;;;8.30;5.13;;;11.40;99.90;;;;;;5055300;28;20224;-70
2024/03/16 06:46:07;;;;;;;9.83;5.23;;;11.40;99.90;;;;;;5055163;28;20218;-70
2024/03/16 06:48:33;;;;;;;8.00;4.60;;;11.40;99.90;;;;;;5055248;28;20190;-70
2024/03/16 06:50:58;;;;;;;8.80;5.10;;;11.30;99.90;;;;;;5055393;28;20451;-70
2024/03/16 06:53:24;;;;;;;4.80;3.90;;;11.40;99.90;;;;;;5055338;28;20190;-70
2024/03/16 06:55:50;;;;;;;6.33;3.80;;;11.40;99.90;;;;;;5054953;28;20171;-71
2024/03/16 06:58:15;;;;;;;5.43;3.63;;;11.40;99.90;;;;;;5053826;28;20190;-71
2024/03/16 07:00:41;;;;;;;5.30;3.90;;;11.30;99.90;;;;;;5048832;28;20179;-70
2024/03/16 07:03:07;;;;;;;8.17;3.30;;;11.30;99.90;;;;;;5054792;28;20258;-70
2024/03/16 07:05:32;;;;;;;3.53;3.00;;;11.30;99.90;;;;;;5054766;28;20175;-70
2024/03/16 07:07:59;;;;;;;4.47;3.20;;;11.30;99.90;;;;;;5053557;28;20190;-70
2024/03/16 07:10:24;;;;;;;4.13;3.43;;;11.30;99.90;;;;;;5054861;28;20217;-69
2024/03/16 07:12:50;;;;;;;4.30;3.33;;;11.30;99.90;;;;;;5054757;28;20413;-70
2024/03/16 07:15:15;;;;;;;4.53;3.53;;;11.40;99.90;;;;;;5054566;28;20174;-70
2024/03/16 07:17:42;;;;;;;4.50;3.77;;;11.30;99.90;;;;;;5054752;28;20188;-70
2024/03/16 07:20:10;;;;;;;5.37;4.37;;;11.30;99.90;;;;;;5054730;28;20163;-70
2024/03/16 07:22:38;;;;;;;4.47;3.73;;;11.30;99.90;;;;;;5053256;28;20404;-69
2024/03/16 07:25:04;;;;;;;6.13;3.63;;;11.30;99.90;;;;;;5054425;28;20996;-69
2024/03/16 07:27:29;;;;;;;9.07;3.53;;;11.40;99.90;;;;;;5054594;28;20923;-70
2024/03/16 07:29:56;;;;;;;10.90;4.70;;;11.50;99.90;;;;;;5054819;28;20409;-70
2024/03/16 07:32:22;;;;;;;7.80;3.70;;;11.60;99.90;;;;;;5054588;28;20561;-69
2024/03/16 07:34:48;;;;;;;9.43;3.83;;;11.70;99.90;;;;;;5054314;28;20455;-69
2024/03/16 07:37:15;;;;;;;5.90;3.23;;;11.80;99.90;;;;;;5050613;28;20422;-68
2024/03/16 07:39:41;;;;;;;3.93;3.27;;;12.00;99.90;;;;;;5046063;28;20430;-69
2024/03/16 07:42:06;;;;;;;5.70;2.70;;;12.40;99.90;;;;;;5054001;28;20408;-69
2024/03/16 07:44:34;;;;;;;7.73;3.17;;;12.60;99.90;;;;;;5046832;28;20214;-69
2024/03/16 07:47:00;;;;;;;4.77;4.00;;;12.60;99.90;;;;;;5050602;28;20178;-69
2024/03/16 07:49:25;;;;;;;6.93;4.00;;;12.50;99.90;;;;;;5038847;28;20802;-69
2024/03/16 07:51:51;;;;;;;4.90;3.90;;;12.40;99.90;;;;;;5051429;28;20433;-69
2024/03/16 07:54:16;;;;;;;5.67;3.47;;;12.40;99.90;;;;;;5037626;28;20197;-69
2024/03/16 07:56:42;;;;;;;5.57;3.07;;;12.30;99.90;;;;;;5050782;28;20175;-69
2024/03/16 07:59:09;;;;;;;3.60;3.30;;;12.20;99.90;;;;;;5048224;28;20222;-69
2024/03/16 08:01:36;;;;;;;3.57;2.87;;;12.20;99.90;;;;;;5053956;28;20159;-69
2024/03/16 08:04:02;;;;;;;6.43;3.80;;;12.10;99.90;;;;;;5053805;28;20492;-69
2024/03/16 08:06:27;;;;;;;4.90;4.10;;;12.00;99.90;;;;;;5053741;28;20484;-70
2024/03/16 08:08:53;;;;;;;8.93;3.97;;;12.00;99.90;;;;;;5053754;28;20491;-69
2024/03/16 08:11:22;;;;;;;4.90;3.83;;;12.20;99.90;;;;;;5052571;28;20657;-70
2024/03/16 08:13:47;;;;;;;4.43;3.33;;;12.40;99.90;;;;;;5053574;28;20448;-70
2024/03/16 08:16:13;;;;;;;5.70;4.07;;;12.60;99.90;;;;;;5053639;28;20397;-69
2024/03/16 08:18:38;;;;;;;4.43;4.03;;;12.90;99.90;;;;;;5053614;28;20222;-69
2024/03/16 08:21:04;;;;;;;4.10;2.80;;;13.10;99.90;;;;;;5053571;28;20181;-69
2024/03/16 08:23:30;;;;;;;6.00;2.73;;;13.20;99.90;;;;;;5052160;28;20178;-69
2024/03/16 08:25:56;;;;;;;3.27;2.97;;;13.20;99.90;;;;;;5053688;28;20210;-70
2024/03/16 08:28:22;;;;;;;6.90;3.13;;;13.40;99.90;;;;;;5053405;28;20597;-70
2024/03/16 08:30:47;;;;;;;7.70;3.30;;;13.50;99.90;;;;;;5053365;28;20194;-69
2024/03/16 08:33:13;;;;;;;2.03;1.60;;;13.70;99.90;;;;;;5053056;28;20476;-69
2024/03/16 08:35:38;;;;;;;3.40;1.97;;;13.90;99.90;;;;;;5051897;28;20166;-69
2024/03/16 08:38:07;;;;;;;6.03;3.10;;;14.00;99.90;;;;;;5053325;28;20206;-70
2024/03/16 08:40:33;;;;;;;4.63;2.67;;;14.20;99.90;;;;;;5038900;28;20712;-69
2024/03/16 08:42:58;;;;;;;6.20;2.90;;;14.50;99.90;;;;;;5043195;28;20410;-67
2024/03/16 08:45:24;;;;;;;5.23;3.20;;;14.80;99.90;;;;;;5052665;28;20357;-68
2024/03/16 08:47:50;;;;;;;9.80;3.60;;;15.10;99.90;;;;;;5053009;28;20321;-68
2024/03/16 08:50:15;;;;;;;3.97;2.50;;;15.20;99.90;;;;;;5053000;28;20170;-68
2024/03/16 08:52:42;;;;;;;1.70;1.60;;;15.60;99.90;;;;;;5049258;28;20622;-69
2024/03/16 08:55:12;;;;;;;3.77;1.93;;;16.60;99.90;;;;;;5044185;28;20324;-68
2024/03/16 08:57:40;;;;;;;2.30;2.10;;;17.90;99.90;;;;;;5052570;28;20414;-70
2024/03/16 09:00:08;;;;;;;2.83;1.97;;;18.10;99.90;;;;;;5052652;28;20405;-70
2024/03/16 09:02:34;;;;;;;2.50;1.20;;;17.90;99.90;;;;;;5052716;28;20413;-70
2024/03/16 09:05:00;;;;;;;1.23;1.13;;;17.60;99.90;;;;;;5052700;28;20607;-69
2024/03/16 09:07:26;;;;;;;1.90;1.13;;;17.30;99.90;;;;;;5052469;28;20173;-69
2024/03/16 09:09:53;;;;;;;1.67;1.17;;;16.90;99.90;;;;;;5052681;28;20409;-70
2024/03/16 09:12:18;;;;;;;1.33;1.00;;;16.70;99.90;;;;;;5052513;28;20402;-71
2024/03/16 09:14:44;;;;;;;2.03;1.40;;;16.60;99.90;;;;;;5050966;28;20504;-71
2024/03/16 09:17:09;;;;;;;6.23;1.37;;;16.60;99.90;;;;;;5052510;28;20186;-71
2024/03/16 09:19:36;;;;;;;3.30;1.40;;;16.60;99.90;;;;;;5052304;28;20592;-70
2024/03/16 09:22:01;;;;;;;3.03;1.40;;;16.50;99.90;;;;;;5052515;28;20537;-70
2024/03/16 09:24:27;;;;;;;4.30;2.20;;;16.30;99.90;;;;;;5052208;28;20405;-70
2024/03/16 09:26:52;;;;;;;4.30;2.80;;;16.00;99.90;;;;;;5052102;28;20167;-71
2024/03/16 09:29:19;;;;;;;4.60;2.20;;;15.80;99.90;;;;;;5052257;28;20182;-70
2024/03/16 09:31:45;;;;;;;3.77;2.10;;;15.50;99.90;;;;;;5044923;28;20275;-71
2024/03/16 09:34:11;;;;;;;3.30;1.90;;;15.20;99.90;;;;;;5036422;28;20552;-70
2024/03/16 09:36:37;;;;;;;2.80;1.97;;;14.90;99.90;;;;;;5051632;28;20210;-69
2024/03/16 09:39:09;;;;;;;4.67;2.60;;;14.60;99.90;;;;;;5051870;28;20486;-69
2024/03/16 09:41:37;;;;;;;5.60;1.37;;;14.40;99.90;;;;;;5048682;28;20590;-68
2024/03/16 09:44:03;;;;;;;4.30;1.77;;;14.20;99.90;;;;;;5051666;28;20893;-67
2024/03/16 09:46:31;;;;;;;2.27;1.77;;;14.00;99.90;;;;;;5048437;28;20409;-68
2024/03/16 09:48:58;;;;;;;5.90;3.13;;;13.90;99.90;;;;;;5051629;28;21010;-67
2024/03/16 09:51:23;;;;;;;2.10;1.90;;;13.80;99.90;;;;;;5051709;28;20430;-68
2024/03/16 09:53:53;;;;;;;2.07;1.87;;;13.70;99.90;;;;;;5048073;28;20808;-68
2024/03/16 09:56:19;;;;;;;2.20;1.87;;;13.60;99.90;;;;;;5049432;28;20632;-68
2024/03/16 09:58:45;;;;;;;3.63;2.00;;;13.40;99.90;;;;;;5050099;28;20441;-67
2024/03/16 10:01:15;;;;;;;5.03;2.40;;;13.20;99.90;;;;;;5056770;28;20922;-66
2024/03/16 10:03:42;;;;;;;3.20;2.83;;;13.10;99.90;;;;;;5060881;28;20182;-69
2024/03/16 10:06:09;;;;;;;3.90;3.30;;;12.90;99.90;;;;;;5049017;28;20422;-68
2024/03/16 10:08:37;;;;;;;3.83;1.90;;;12.80;99.90;;;;;;5051299;28;20886;-68
2024/03/16 10:11:10;;;;;;;1.50;1.20;;;12.60;99.90;;;;;;5052935;28;20408;-71
2024/03/16 10:13:37;;;;;;;1.47;1.30;;;12.40;99.90;;;;;;5051323;28;20487;-68
2024/03/16 10:16:06;;;;;;;1.30;0.90;;;12.20;99.90;;;;;;5051277;28;20418;-68
2024/03/16 10:18:35;;;;;;;1.73;1.20;;;12.00;99.90;;;;;;5048688;28;20871;-68
2024/03/16 10:21:03;;;;;;;1.10;1.00;;;12.00;99.90;;;;;;5042956;28;20505;-68
2024/03/16 10:23:31;;;;;;;1.20;1.10;;;12.00;99.90;;;;;;5051318;28;20421;-68
2024/03/16 10:25:57;;;;;;;4.30;1.50;;;12.00;99.90;;;;;;5049839;28;20416;-69
2024/03/16 10:28:24;;;;;;;7.47;2.13;;;12.00;99.90;;;;;;5051366;28;20421;-68
2024/03/16 10:30:49;;;;;;;2.40;1.27;;;11.90;99.90;;;;;;5051572;28;20444;-68
2024/03/16 10:33:20;;;;;;;1.47;1.37;;;11.90;99.90;;;;;;5051390;28;20833;-68
2024/03/16 10:35:46;;;;;;;2.20;1.33;;;12.00;99.90;;;;;;5051218;28;20179;-68
2024/03/16 10:38:13;;;;;;;2.10;1.23;;;12.00;99.90;;;;;;5051560;28;20904;-69
2024/03/16 10:40:42;;;;;;;2.23;1.30;;;12.10;99.90;;;;;;5051403;28;20174;-68
2024/03/16 10:43:16;;;;;;;2.10;1.20;;;12.20;99.90;;;;;;5051380;28;20415;-69
2024/03/16 10:45:45;;;;;;;1.50;1.40;;;12.20;99.90;;;;;;5051222;28;20420;-68
2024/03/16 10:48:13;;;;;;;1.37;1.27;;;12.30;99.90;;;;;;5045468;28;20487;-67
2024/03/16 10:50:42;;;;;;;1.83;1.73;;;12.30;99.90;;;;;;5038835;28;20506;-68
2024/03/16 10:53:09;;;;;;;3.40;2.00;;;12.40;99.90;;;;;;5046010;28;20448;-68
2024/03/16 10:55:39;;;;;;;2.00;1.27;;;12.50;99.90;;;;;;5050932;28;20892;-68
2024/03/16 10:58:18;;;;;;;3.30;1.10;;;12.50;99.90;;;;;;5050596;28;20449;-68
2024/03/16 11:00:44;;;;;;;1.00;0.90;;;12.50;99.90;;;;;;5053731;28;20466;-68
2024/03/16 11:03:15;;;;;;;1.93;1.00;;;12.40;99.90;;;;;;5055100;28;20406;-68
2024/03/16 11:05:54;;;;;;;1.30;1.10;;;12.20;99.90;;;;;;5054726;28;20775;-69
2024/03/16 11:08:53;;;;;;;1.27;1.17;;;12.00;99.90;;;;;;5054813;28;20487;-69
2024/03/16 11:11:26;;;;;;;1.40;0.80;;;12.10;99.90;;;;;;5054791;28;20408;-69
2024/03/16 11:14:05;;;;;;;3.53;1.00;;;12.20;99.90;;;;;;5054633;28;20849;-68
2024/03/16 11:16:43;;;;;;;1.50;0.73;;;12.30;99.90;;;;;;5054596;28;20401;-68
2024/03/16 11:19:17;;;;;;;1.40;1.20;;;12.40;99.90;;;;;;5046104;28;20472;-68
2024/03/16 11:21:48;;;;;;;0.80;0.70;;;12.30;99.90;;;;;;5049234;28;20428;-68
2024/03/16 11:24:17;;;;;;;1.20;0.97;;;12.40;99.90;;;;;;5052057;28;20433;-68
2024/03/16 11:26:46;;;;;;;1.50;1.10;;;12.50;99.90;;;;;;5042491;28;20426;-68
2024/03/16 11:29:18;;;;;;;3.00;1.20;;;12.70;99.90;;;;;;5053775;28;20830;-69
2024/03/16 11:31:49;;;;;;;4.63;1.10;;;13.00;99.90;;;;;;5052066;28;20472;-69
2024/03/16 11:34:16;;;;;;;2.27;0.83;;;13.40;99.90;;;;;;5053975;28;20448;-69
2024/03/16 11:36:52;;;;;;;1.20;1.07;;;13.80;99.90;;;;;;5054148;28;20414;-69
2024/03/16 11:39:24;;;;;;;1.20;1.07;;;14.00;99.90;;;;;;5054091;28;20787;-69
2024/03/16 11:41:50;;;;;;;1.30;0.90;;;14.20;99.90;;;;;;5053258;28;20410;-69
2024/03/16 11:44:17;;;;;;;2.37;1.00;;;14.30;99.90;;;;;;5054300;28;20420;-68
2024/03/16 11:46:46;;;;;;;1.30;1.10;;;14.40;99.90;;;;;;5053964;28;20476;-68
2024/03/16 11:49:14;;;;;;;1.60;1.20;;;14.30;99.90;;;;;;5054089;28;20948;-68
2024/03/16 11:51:41;;;;;;;1.93;1.20;;;14.20;99.90;;;;;;5053952;28;20437;-68
2024/03/16 11:54:07;;;;;;;1.67;1.00;;;14.00;99.90;;;;;;5053823;28;20967;-68
2024/03/16 11:56:36;;;;;;;3.30;1.30;;;14.00;99.90;;;;;;5053827;28;20463;-68
2024/03/16 11:59:05;;;;;;;4.57;1.30;;;14.00;99.90;;;;;;5054034;28;20233;-69
2024/03/16 12:01:32;;;;;;;1.30;0.93;;;13.90;99.90;;;;;;5053936;28;20403;-68
2024/03/16 12:03:59;;;;;;;2.87;1.20;;;13.80;99.90;;;;;;5053761;28;20499;-68
2024/03/16 12:06:26;;;;;;;1.43;1.10;;;13.70;99.90;;;;;;5053587;28;20406;-68
2024/03/16 12:08:52;;;;;;;1.33;1.13;;;13.50;99.90;;;;;;5053099;28;20425;-68
2024/03/16 12:11:19;;;;;;;3.70;1.20;;;13.50;99.90;;;;;;5053726;28;20401;-68
2024/03/16 12:13:46;;;;;;;1.23;0.90;;;13.60;99.90;;;;;;5053573;28;20480;-68
2024/03/16 12:16:11;;;;;;;1.53;1.03;;;13.70;99.90;;;;;;5053421;28;20910;-69
2024/03/16 12:18:39;;;;;;;1.53;0.87;;;13.90;99.90;;;;;;5053390;28;20528;-68
2024/03/16 12:21:05;;;;;;;0.90;0.80;;;14.10;99.90;;;;;;5053583;28;20163;-68
2024/03/16 12:23:32;;;;;;;1.13;1.00;;;14.40;99.90;;;;;;5053471;28;20936;-68
2024/03/16 12:25:58;;;;;;;2.20;1.20;;;14.70;99.90;;;;;;5053217;28;20439;-69
2024/03/16 12:28:27;;;;;;;2.70;1.20;;;15.00;99.90;;;;;;5053416;28;20686;-69
2024/03/16 12:30:53;;;;;;;4.43;1.13;;;15.10;99.90;;;;;;5053297;28;20428;-68
2024/03/16 12:33:19;;;;;;;1.73;0.90;;;15.20;99.90;;;;;;5052177;28;20437;-69
2024/03/16 12:35:45;;;;;;;3.63;1.50;;;15.20;99.90;;;;;;5053053;28;20514;-68
2024/03/16 12:38:11;;;;;;;2.30;1.30;;;15.30;99.90;;;;;;5053096;28;20459;-69
2024/03/16 12:40:38;;;;;;;1.37;1.27;;;15.30;99.90;;;;;;5053276;28;20405;-69
2024/03/16 12:43:08;;;;;;;1.40;1.30;;;15.40;99.90;;;;;;5053089;28;20167;-69